Time;durP1;ratioP1;P1;durP2;ratioP2;P2;SDS_P1;SDS_P2;PMS_P1;PMS_P2;Temp;Humidity;BMP_temperature;BMP_pressure;BME280_temperature;BME280_humidity;BME280_pressure;Samples;Min_cycle;Max_cycle;Signal;HPM_P1;HPM_P2
2022/11/19 00:01:11;;;;;;;38.47;18.63;;;3.10;86.60;;;;;;9179654;19;20025;-62
2022/11/19 00:04:15;;;;;;;36.10;18.77;;;3.10;86.70;;;;;;9178150;19;20042;-63
2022/11/19 00:07:20;;;;;;;34.20;18.38;;;3.00;86.60;;;;;;9177772;19;20014;-64
2022/11/19 00:10:24;;;;;;;34.33;17.92;;;3.00;86.60;;;;;;9179100;19;20476;-66
2022/11/19 00:13:28;;;;;;;34.10;18.08;;;3.00;87.00;;;;;;9179708;19;20018;-65
2022/11/19 00:16:31;;;;;;;32.85;17.42;;;3.00;86.60;;;;;;9177931;19;20014;-64
2022/11/19 00:19:35;;;;;;;29.38;16.80;;;2.90;86.50;;;;;;9179385;19;20014;-63
2022/11/19 00:22:42;;;;;;;33.25;16.60;;;2.90;86.50;;;;;;9179299;19;20026;-64
2022/11/19 00:25:46;;;;;;;29.20;16.35;;;2.90;86.60;;;;;;9174987;19;20056;-64
2022/11/19 00:28:50;;;;;;;29.08;15.90;;;2.90;86.50;;;;;;9178100;19;20088;-63
2022/11/19 00:31:53;;;;;;;;;;;2.90;86.50;;;;;;9179439;19;20470;-65
2022/11/19 00:34:57;;;;;;;30.33;16.67;;;2.90;86.50;;;;;;9178469;19;19911;-63
2022/11/19 00:38:02;;;;;;;28.33;16.77;;;2.80;86.40;;;;;;9178943;19;20018;-64
2022/11/19 00:41:07;;;;;;;28.80;15.75;;;2.90;86.40;;;;;;9176002;19;20014;-64
2022/11/19 00:44:11;;;;;;;29.20;15.65;;;2.80;86.40;;;;;;9175324;19;20443;-64
2022/11/19 00:47:15;;;;;;;29.05;15.80;;;2.80;86.40;;;;;;9178283;19;20496;-65
2022/11/19 00:50:18;;;;;;;27.55;14.98;;;2.80;86.40;;;;;;9178545;19;20404;-66
2022/11/19 00:53:24;;;;;;;27.70;14.75;;;2.80;86.40;;;;;;9173659;19;20022;-63
2022/11/19 00:56:28;;;;;;;26.58;15.60;;;2.80;86.40;;;;;;9178708;19;20010;-63
2022/11/19 00:59:32;;;;;;;27.08;15.77;;;2.80;86.40;;;;;;9179218;19;20021;-67
2022/11/19 01:02:36;;;;;;;;;;;2.80;86.30;;;;;;9178694;19;20022;-66
2022/11/19 01:05:39;;;;;;;26.10;15.20;;;2.70;86.30;;;;;;9174113;19;19922;-65
2022/11/19 01:08:45;;;;;;;28.02;15.75;;;2.70;86.20;;;;;;9177561;19;20372;-64
2022/11/19 01:11:49;;;;;;;27.88;15.23;;;2.70;86.20;;;;;;9177784;19;20015;-64
2022/11/19 01:14:52;;;;;;;25.92;15.55;;;2.70;86.30;;;;;;9178005;19;20025;-64
2022/11/19 01:17:56;;;;;;;;;;;2.70;86.20;;;;;;9177979;19;20025;-65
2022/11/19 01:21:00;;;;;;;30.33;15.20;;;2.70;86.30;;;;;;9177078;19;19930;-64
2022/11/19 01:24:07;;;;;;;29.08;16.60;;;2.70;86.30;;;;;;9175188;19;20014;-63
2022/11/19 01:27:10;;;;;;;33.08;16.15;;;2.70;86.30;;;;;;9176541;19;20025;-63
2022/11/19 01:30:14;;;;;;;;;;;2.70;86.20;;;;;;9177486;19;20041;-64
2022/11/19 01:33:18;;;;;;;31.10;14.63;;;2.70;86.30;;;;;;9177028;19;19926;-62
2022/11/19 01:36:23;;;;;;;30.48;16.23;;;2.70;86.10;;;;;;9176422;19;20078;-63
2022/11/19 01:39:29;;;;;;;26.73;15.38;;;2.70;86.10;;;;;;9180188;19;20452;-63
2022/11/19 01:45:53;;;;;;;26.40;14.68;;;2.60;86.00;;;;;;9181608;19;20015;-69
2022/11/19 01:49:01;;;;;;;28.58;15.75;;;2.60;86.00;;;;;;9182102;19;20018;-64
2022/11/19 01:52:05;;;;;;;26.42;14.05;;;2.60;86.00;;;;;;9183147;19;20018;-66
2022/11/19 01:55:12;;;;;;;32.70;15.38;;;2.60;86.00;;;;;;9177505;19;20052;-64
2022/11/19 01:58:20;;;;;;;31.08;14.85;;;2.60;86.00;;;;;;9183571;19;20433;-64
2022/11/19 02:01:23;;;;;;;26.48;14.07;;;2.60;86.00;;;;;;9180946;19;20471;-64
2022/11/19 02:04:29;;;;;;;27.40;14.75;;;2.60;85.90;;;;;;9182796;19;20014;-62
2022/11/19 02:07:35;;;;;;;24.70;13.55;;;2.60;86.00;;;;;;9180874;19;20048;-66
2022/11/19 02:10:51;;;;;;;22.98;12.55;;;2.50;85.80;;;;;;9183665;19;20007;-63
2022/11/19 02:14:04;;;;;;;29.38;13.88;;;2.50;85.80;;;;;;9183759;19;20018;-62
2022/11/19 02:17:17;;;;;;;24.58;14.68;;;2.50;85.70;;;;;;9183272;19;20035;-62
2022/11/19 02:20:34;;;;;;;30.73;14.80;;;2.50;85.80;;;;;;9183139;19;20472;-63
2022/11/19 02:24:01;;;;;;;24.08;13.82;;;2.50;85.80;;;;;;9182292;19;20472;-62
2022/11/19 02:27:37;;;;;;;26.65;14.25;;;2.50;85.80;;;;;;9182704;19;20640;-63
2022/11/19 02:30:45;;;;;;;24.80;13.52;;;2.50;85.70;;;;;;9183146;19;20031;-61
2022/11/19 02:33:55;;;;;;;24.08;13.63;;;2.50;85.70;;;;;;9182551;19;20018;-64
2022/11/19 02:37:06;;;;;;;28.30;13.60;;;2.40;85.80;;;;;;9180165;19;20018;-66
2022/11/19 02:40:15;;;;;;;23.75;13.20;;;2.50;85.70;;;;;;9183437;19;20954;-64
2022/11/19 02:43:23;;;;;;;22.73;13.23;;;2.40;85.60;;;;;;9181956;19;20023;-65
2022/11/19 02:46:29;;;;;;;23.13;12.88;;;2.40;85.70;;;;;;9182124;19;20022;-64
2022/11/19 02:49:36;;;;;;;24.33;12.45;;;2.40;85.60;;;;;;9180323;19;20025;-64
2022/11/19 02:52:41;;;;;;;24.70;13.25;;;2.40;86.20;;;;;;9180176;19;20361;-64
2022/11/19 02:56:09;;;;;;;25.52;11.32;;;2.40;85.60;;;;;;9174558;19;20082;-65
2022/11/19 03:05:56;;;;;;;30.42;13.63;;;2.40;85.50;;;;;;9178122;19;20049;-65
2022/11/19 03:09:00;;;;;;;23.83;12.90;;;2.30;85.50;;;;;;9181443;19;20029;-65
2022/11/19 03:12:11;;;;;;;22.67;12.75;;;2.30;85.50;;;;;;9181336;19;20010;-65
2022/11/19 03:18:51;;;;;;;22.42;11.88;;;2.30;85.40;;;;;;9179690;19;20007;-63
2022/11/19 03:21:59;;;;;;;21.75;11.52;;;2.30;85.50;;;;;;9181557;19;20002;-64
2022/11/19 03:25:08;;;;;;;23.90;12.90;;;2.20;85.40;;;;;;9179168;19;20468;-63
2022/11/19 03:28:18;;;;;;;27.05;13.52;;;2.20;85.40;;;;;;9181104;19;20086;-64
2022/11/19 03:31:24;;;;;;;26.95;12.32;;;2.20;85.40;;;;;;9180139;19;20100;-62
2022/11/19 03:34:32;;;;;;;29.10;13.73;;;2.20;85.30;;;;;;9181495;19;20499;-64
2022/11/19 03:37:39;;;;;;;23.30;12.88;;;2.20;85.30;;;;;;9179173;19;20455;-63
2022/11/19 03:40:44;;;;;;;25.48;12.75;;;2.20;85.30;;;;;;9178774;19;20011;-64
2022/11/19 03:43:53;;;;;;;26.45;13.20;;;2.10;85.30;;;;;;9180305;19;20794;-66
2022/11/19 03:47:00;;;;;;;26.45;12.13;;;2.10;85.30;;;;;;9179746;19;20022;-63
2022/11/19 03:50:11;;;;;;;24.20;13.48;;;2.10;85.30;;;;;;9177954;19;20018;-64
2022/11/19 03:53:15;;;;;;;26.42;12.13;;;2.10;85.20;;;;;;9175601;19;20769;-64
2022/11/19 03:56:24;;;;;;;27.50;14.40;;;2.10;85.20;;;;;;9180187;19;20097;-65
2022/11/19 03:59:28;;;;;;;30.25;14.32;;;2.00;85.20;;;;;;9180330;19;20010;-63
2022/11/19 04:02:33;;;;;;;27.00;13.63;;;2.00;85.20;;;;;;9176054;19;20026;-65
2022/11/19 04:05:39;;;;;;;;;;;2.00;85.10;;;;;;9175978;19;20023;-64
2022/11/19 04:08:42;;;;;;;23.60;12.43;;;2.00;85.10;;;;;;9179689;19;19915;-63
2022/11/19 04:11:46;;;;;;;;;;;1.90;85.10;;;;;;9180013;19;20383;-63
2022/11/19 04:14:50;;;;;;;26.63;13.48;;;1.90;85.10;;;;;;9180184;19;19929;-64
2022/11/19 04:17:54;;;;;;;25.85;13.57;;;1.90;85.10;;;;;;9179239;19;20027;-64
2022/11/19 04:20:59;;;;;;;;;;;1.80;85.00;;;;;;9180046;19;20468;-64
2022/11/19 04:24:03;;;;;;;23.92;12.60;;;1.80;85.00;;;;;;9178284;19;19918;-64
2022/11/19 04:27:06;;;;;;;;;;;1.70;85.00;;;;;;9179543;19;20014;-64
2022/11/19 04:30:11;;;;;;;17.53;9.40;;;1.70;85.00;;;;;;9178608;19;19942;-64
2022/11/19 04:33:15;;;;;;;26.95;14.45;;;1.70;85.10;;;;;;9178790;19;20026;-64
2022/11/19 04:36:21;;;;;;;;;;;1.60;84.90;;;;;;9177904;19;20022;-66
2022/11/19 04:39:25;;;;;;;24.45;13.82;;;1.60;85.00;;;;;;9179157;19;19923;-64
2022/11/19 04:42:29;;;;;;;26.80;13.73;;;1.50;84.80;;;;;;9178891;19;20014;-64
2022/11/19 04:45:32;;;;;;;;;;;1.50;84.90;;;;;;9177180;19;20015;-64
2022/11/19 04:48:36;;;;;;;26.13;14.27;;;1.40;84.90;;;;;;9178297;19;19922;-65
2022/11/19 04:51:42;;;;;;;;;;;1.30;84.80;;;;;;9178123;19;20016;-64
2022/11/19 04:54:45;;;;;;;25.65;13.32;;;1.30;84.90;;;;;;9171600;19;20340;-64
2022/11/19 04:57:50;;;;;;;;;;;1.30;84.90;;;;;;9177268;19;20018;-64
2022/11/19 05:00:54;;;;;;;25.40;13.50;;;1.20;84.90;;;;;;9176280;19;19922;-65
2022/11/19 05:03:57;;;;;;;;;;;1.20;84.90;;;;;;9178355;19;20018;-63
2022/11/19 05:07:03;;;;;;;16.33;9.40;;;1.10;84.80;;;;;;9177392;19;20317;-63
2022/11/19 05:10:08;;;;;;;24.65;13.05;;;1.10;84.90;;;;;;9175529;19;20115;-64
2022/11/19 05:13:11;;;;;;;24.75;13.60;;;1.10;99.70;;;;;;9176816;19;20014;-63
2022/11/19 05:16:15;;;;;;;;;;;1.20;99.90;;;;;;9179014;19;20014;-65
2022/11/19 05:19:19;;;;;;;24.23;13.10;;;1.10;98.10;;;;;;9177198;19;19927;-64
2022/11/19 05:22:24;;;;;;;26.98;13.88;;;1.10;98.00;;;;;;9175616;19;20015;-64
2022/11/19 05:25:28;;;;;;;25.95;13.65;;;1.10;98.50;;;;;;9171892;19;20014;-65
2022/11/19 05:28:32;;;;;;;26.40;13.95;;;1.10;99.90;;;;;;9175897;19;20015;-64
2022/11/19 05:31:42;;;;;;;23.95;12.20;;;1.10;99.10;;;;;;9175706;19;20029;-64
2022/11/19 05:34:46;;;;;;;;;;;1.10;98.20;;;;;;9177568;19;20057;-66
2022/11/19 05:37:52;;;;;;;24.97;13.30;;;1.00;97.90;;;;;;9177040;19;19911;-66
2022/11/19 05:40:56;;;;;;;25.90;13.68;;;1.00;98.40;;;;;;9176214;19;20074;-62
2022/11/19 05:43:59;;;;;;;25.20;12.63;;;0.90;92.10;;;;;;9175646;19;20022;-64
2022/11/19 05:47:03;;;;;;;;;;;0.90;98.30;;;;;;9178046;19;20589;-62
2022/11/19 05:50:08;;;;;;;26.30;13.13;;;0.80;97.30;;;;;;9175725;19;19923;-66
2022/11/19 05:53:14;;;;;;;24.90;12.55;;;0.80;96.60;;;;;;9170207;19;20128;-63
2022/11/19 05:56:18;;;;;;;27.17;14.15;;;0.90;96.70;;;;;;9175646;19;20033;-64
2022/11/19 05:59:22;;;;;;;26.80;13.27;;;0.80;97.00;;;;;;9174189;19;20476;-63
2022/11/19 06:02:26;;;;;;;23.50;12.90;;;0.80;96.40;;;;;;9175499;19;20031;-65
2022/11/19 06:05:30;;;;;;;23.63;12.23;;;0.80;96.90;;;;;;9173661;19;20022;-65
2022/11/19 06:08:41;;;;;;;27.30;12.65;;;0.70;96.50;;;;;;9173345;19;20030;-66
2022/11/19 06:11:50;;;;;;;23.48;12.43;;;0.80;95.90;;;;;;9175411;19;20348;-62
2022/11/19 06:14:54;;;;;;;28.35;12.48;;;0.70;95.80;;;;;;9175506;19;20014;-63
2022/11/19 06:17:58;;;;;;;;;;;0.70;96.30;;;;;;9175704;19;20015;-62
2022/11/19 06:21:01;;;;;;;23.23;11.90;;;0.60;96.40;;;;;;9171695;19;19927;-65
2022/11/19 06:24:07;;;;;;;;;;;0.60;96.00;;;;;;9172482;19;20382;-63
2022/11/19 06:27:11;;;;;;;21.85;11.60;;;0.60;96.20;;;;;;9181742;19;19915;-63
2022/11/19 06:30:15;;;;;;;;;;;0.60;96.10;;;;;;9183868;19;20022;-63
2022/11/19 06:33:21;;;;;;;19.23;10.75;;;0.50;96.60;;;;;;9183025;19;19926;-65
2022/11/19 06:36:26;;;;;;;22.92;11.95;;;0.70;96.50;;;;;;9182076;19;20019;-63
2022/11/19 06:39:32;;;;;;;24.20;11.70;;;0.40;87.30;;;;;;9181987;19;20051;-62
2022/11/19 06:42:39;;;;;;;23.75;11.60;;;0.30;85.40;;;;;;9182885;19;20018;-63
2022/11/19 06:45:42;;;;;;;20.98;11.70;;;0.30;85.10;;;;;;9178505;19;20040;-64
2022/11/19 06:48:46;;;;;;;;;;;0.20;85.10;;;;;;9181458;19;20028;-64
2022/11/19 06:51:50;;;;;;;25.02;12.88;;;0.20;85.10;;;;;;9180445;19;19926;-65
2022/11/19 06:54:55;;;;;;;22.35;11.52;;;0.20;85.00;;;;;;9175343;19;20086;-64
2022/11/19 06:58:03;;;;;;;29.00;12.52;;;0.20;85.10;;;;;;9179125;19;20007;-64
2022/11/19 07:01:07;;;;;;;25.80;12.32;;;0.10;85.20;;;;;;9181187;19;20031;-62
2022/11/19 07:04:11;;;;;;;22.50;12.65;;;0.10;85.00;;;;;;9180702;19;20025;-63
2022/11/19 07:07:15;;;;;;;22.48;11.20;;;0.10;84.80;;;;;;9181630;19;20425;-62
2022/11/19 07:10:21;;;;;;;21.85;11.98;;;0.00;84.80;;;;;;9181075;19;20081;-63
2022/11/19 07:13:55;;;;;;;25.83;11.88;;;0.00;85.00;;;;;;9181780;19;20015;-63
2022/11/19 07:16:48;;;;;;;24.00;11.45;;;0.00;84.70;;;;;;9178568;19;20034;-62
2022/11/19 07:19:51;;;;;;;;;;;0.00;84.80;;;;;;9181074;19;20527;-62
2022/11/19 07:22:55;;;;;;;23.07;12.63;;;-0.10;84.70;;;;;;9179986;19;19942;-64
2022/11/19 07:26:04;;;;;;;23.73;12.00;;;-0.10;84.60;;;;;;9178118;19;20014;-65
2022/11/19 07:29:09;;;;;;;24.40;11.65;;;-0.10;84.70;;;;;;9180403;19;20010;-62
2022/11/19 07:32:13;;;;;;;21.40;10.90;;;-0.20;84.70;;;;;;9180494;19;20011;-64
2022/11/19 07:35:16;;;;;;;23.88;12.18;;;-0.10;84.90;;;;;;9178172;19;20026;-65
2022/11/19 07:38:20;;;;;;;24.75;12.77;;;-0.20;84.80;;;;;;9179072;19;20036;-62
2022/11/19 07:44:43;;;;;;;23.58;11.32;;;-0.20;84.60;;;;;;9178739;19;20026;-63
2022/11/19 07:47:46;;;;;;;;;;;-0.20;84.60;;;;;;9180605;19;20015;-63
2022/11/19 07:50:53;;;;;;;27.58;12.15;;;-0.20;84.70;;;;;;9179960;19;19925;-64
2022/11/19 07:53:59;;;;;;;24.48;11.55;;;-0.20;84.70;;;;;;9174818;19;20015;-65
2022/11/19 07:57:05;;;;;;;;;;;-0.20;84.70;;;;;;9180700;19;20014;-64
2022/11/19 08:00:10;;;;;;;28.70;11.73;;;-0.20;84.70;;;;;;9179367;19;20276;-63
2022/11/19 08:03:17;;;;;;;24.88;11.85;;;-0.20;84.60;;;;;;9179048;19;20013;-63
2022/11/19 08:06:22;;;;;;;21.83;11.70;;;-0.20;84.70;;;;;;9176766;19;20025;-63
2022/11/19 08:09:26;;;;;;;26.30;11.95;;;-0.20;84.70;;;;;;9179690;19;20019;-65
2022/11/19 08:12:32;;;;;;;22.27;11.00;;;-0.20;84.70;;;;;;9178575;19;20470;-62
2022/11/19 08:15:36;;;;;;;22.63;11.13;;;-0.20;84.70;;;;;;9178543;19;20029;-63
2022/11/19 08:18:38;;;;;;;21.27;11.27;;;-0.20;84.60;;;;;;9179275;19;20022;-63
2022/11/19 08:21:44;;;;;;;24.25;11.88;;;-0.20;84.60;;;;;;9177611;19;20386;-63
2022/11/19 08:24:47;;;;;;;25.58;11.52;;;-0.20;84.70;;;;;;9177404;19;20022;-64
2022/11/19 08:27:53;;;;;;;;;;;-0.20;84.60;;;;;;9179256;19;20018;-63
2022/11/19 08:30:57;;;;;;;20.45;10.30;;;-0.20;84.60;;;;;;9178597;19;19914;-62
2022/11/19 08:34:02;;;;;;;22.63;11.02;;;-0.20;84.60;;;;;;9179318;19;20858;-62
2022/11/19 08:37:06;;;;;;;21.20;11.60;;;-0.10;84.60;;;;;;9178714;19;20022;-65
2022/11/19 08:40:11;;;;;;;20.10;10.98;;;-0.10;84.60;;;;;;9178841;19;20379;-64
2022/11/19 08:43:17;;;;;;;20.70;10.45;;;-0.10;84.60;;;;;;9177399;19;20487;-63
2022/11/19 08:46:20;;;;;;;20.15;10.60;;;-0.10;84.60;;;;;;9174249;19;20035;-64
2022/11/19 08:49:24;;;;;;;23.05;10.48;;;0.00;85.00;;;;;;9176327;19;20046;-63
2022/11/19 08:52:28;;;;;;;26.13;10.60;;;0.00;84.60;;;;;;9178250;19;20009;-61
2022/11/19 08:55:32;;;;;;;;;;;0.10;84.60;;;;;;9171686;19;20011;-66
2022/11/19 08:58:38;;;;;;;21.08;10.43;;;0.00;84.40;;;;;;9176807;19;19986;-63
2022/11/19 09:01:41;;;;;;;20.77;10.05;;;0.10;84.50;;;;;;9173573;19;20046;-63
2022/11/19 09:04:45;;;;;;;18.38;9.18;;;0.10;84.50;;;;;;9176274;19;20030;-64
2022/11/19 09:07:48;;;;;;;;;;;0.10;84.40;;;;;;9178340;19;20106;-63
2022/11/19 09:10:52;;;;;;;20.47;9.67;;;0.20;84.50;;;;;;9171361;19;19929;-64
2022/11/19 09:13:59;;;;;;;;;;;0.20;84.50;;;;;;9176840;19;21200;-63
2022/11/19 09:17:03;;;;;;;17.35;9.00;;;0.30;84.50;;;;;;9176515;19;19951;-63
2022/11/19 09:20:07;;;;;;;;;;;0.30;84.50;;;;;;9177161;19;20019;-65
2022/11/19 09:23:11;;;;;;;14.65;8.68;;;0.30;84.40;;;;;;9173527;19;19918;-64
2022/11/19 09:26:17;;;;;;;24.83;10.60;;;0.40;84.50;;;;;;9173837;19;20018;-67
2022/11/19 09:29:23;;;;;;;17.98;9.40;;;0.40;84.40;;;;;;9175499;19;20011;-64
2022/11/19 09:32:28;;;;;;;19.75;9.48;;;0.50;84.50;;;;;;9175082;19;20011;-64
2022/11/19 09:35:32;;;;;;;18.92;9.27;;;0.50;84.70;;;;;;9176367;19;20015;-64
2022/11/19 09:38:36;;;;;;;;;;;0.60;84.60;;;;;;9176615;19;20014;-63
2022/11/19 09:41:47;;;;;;;16.90;9.85;;;0.70;84.60;;;;;;9176937;19;19939;-64
2022/11/19 09:45:15;;;;;;;15.50;9.10;;;0.80;84.60;;;;;;9175287;19;20011;-62
2022/11/19 09:48:28;;;;;;;17.90;9.60;;;0.90;84.70;;;;;;9173274;19;20014;-64
2022/11/19 09:51:36;;;;;;;19.83;9.52;;;1.10;84.70;;;;;;9174005;19;20457;-63
2022/11/19 09:54:45;;;;;;;13.23;7.20;;;1.20;85.30;;;;;;9170031;19;20010;-65
2022/11/19 09:57:52;;;;;;;15.35;8.60;;;1.40;84.70;;;;;;9174238;19;20599;-63
2022/11/19 10:00:58;;;;;;;13.80;7.65;;;1.50;84.60;;;;;;9182590;19;20019;-64
2022/11/19 10:04:02;;;;;;;13.93;8.35;;;1.70;84.60;;;;;;9183490;19;20054;-64
2022/11/19 10:07:12;;;;;;;17.48;7.72;;;1.90;84.60;;;;;;9180776;19;20042;-66
2022/11/19 10:10:29;;;;;;;16.23;7.95;;;2.00;84.40;;;;;;9184115;19;20018;-64
2022/11/19 10:13:51;;;;;;;14.02;7.15;;;2.20;84.20;;;;;;9183816;19;20456;-64
2022/11/19 10:17:08;;;;;;;12.70;6.53;;;2.30;84.10;;;;;;9181654;19;20018;-65
2022/11/19 10:20:35;;;;;;;10.07;6.30;;;2.40;83.90;;;;;;9183020;19;20598;-63
2022/11/19 10:23:49;;;;;;;12.27;7.20;;;2.50;83.70;;;;;;9183465;19;20022;-63
2022/11/19 10:27:00;;;;;;;11.35;6.78;;;2.50;84.10;;;;;;9180416;19;20010;-66
2022/11/19 10:30:17;;;;;;;11.95;6.90;;;2.50;83.40;;;;;;9183014;19;20334;-64
2022/11/19 10:33:30;;;;;;;10.70;6.25;;;2.60;83.40;;;;;;9182842;19;20463;-64
2022/11/19 10:36:40;;;;;;;11.25;6.43;;;2.50;83.20;;;;;;9182378;19;20022;-64
2022/11/19 10:39:49;;;;;;;9.50;5.68;;;2.60;83.20;;;;;;9183127;19;20464;-64
2022/11/19 10:42:58;;;;;;;9.40;5.88;;;2.60;83.10;;;;;;9180845;19;20010;-63
2022/11/19 10:46:05;;;;;;;10.73;5.72;;;2.60;83.00;;;;;;9180721;19;20075;-65
2022/11/19 10:49:12;;;;;;;11.02;6.45;;;2.60;83.00;;;;;;9182674;19;20022;-64
2022/11/19 10:52:26;;;;;;;13.05;5.95;;;2.60;82.90;;;;;;9182126;19;20010;-61
2022/11/19 10:55:36;;;;;;;11.27;6.28;;;2.60;82.80;;;;;;9175378;19;20007;-66
2022/11/19 10:58:43;;;;;;;11.15;6.47;;;2.60;82.90;;;;;;9181896;19;20035;-63
2022/11/19 11:01:54;;;;;;;10.98;6.00;;;2.70;82.80;;;;;;9180009;19;20011;-64
2022/11/19 11:05:10;;;;;;;13.82;7.05;;;2.70;82.80;;;;;;9179653;19;20018;-63
2022/11/19 11:08:14;;;;;;;12.88;6.13;;;2.70;82.60;;;;;;9181785;19;20038;-65
2022/11/19 11:14:50;;;;;;;11.40;6.38;;;2.80;82.60;;;;;;9181014;19;20081;-63
2022/11/19 11:14:51;;;;;;;10.48;6.13;;;2.80;82.50;;;;;;9181037;19;20017;-63
2022/11/19 11:18:02;;;;;;;9.63;5.78;;;2.80;82.40;;;;;;9181447;19;20018;-66
2022/11/19 11:21:12;;;;;;;10.63;6.18;;;2.90;82.40;;;;;;9181315;19;20539;-64
2022/11/19 11:24:18;;;;;;;7.85;5.43;;;2.90;82.30;;;;;;9181381;19;20769;-65
2022/11/19 11:27:30;;;;;;;9.80;6.00;;;2.90;82.20;;;;;;9177609;19;20060;-65
2022/11/19 11:30:34;;;;;;;9.30;5.65;;;3.00;82.20;;;;;;9180824;19;20021;-63
2022/11/19 11:33:40;;;;;;;10.20;6.25;;;3.00;82.10;;;;;;9181442;19;20006;-65
2022/11/19 11:36:46;;;;;;;12.00;6.25;;;3.00;82.00;;;;;;9181613;19;20023;-65
2022/11/19 11:39:54;;;;;;;10.60;6.20;;;3.00;82.00;;;;;;9181025;19;20030;-63
2022/11/19 11:42:58;;;;;;;9.52;5.20;;;3.00;81.90;;;;;;9180333;19;20010;-63
2022/11/19 11:46:03;;;;;;;9.80;5.20;;;3.00;82.50;;;;;;9178681;19;20018;-65
2022/11/19 11:49:11;;;;;;;11.10;6.50;;;3.00;81.90;;;;;;9178882;19;20013;-63
2022/11/19 11:52:24;;;;;;;8.85;5.35;;;3.00;81.80;;;;;;9174819;19;20007;-64
2022/11/19 11:55:33;;;;;;;8.05;5.35;;;3.00;81.70;;;;;;9169168;19;20010;-64
2022/11/19 11:58:36;;;;;;;9.27;5.60;;;3.00;81.70;;;;;;9177091;19;20470;-65
2022/11/19 12:01:41;;;;;;;;;;;3.00;81.70;;;;;;9180505;19;20025;-64
2022/11/19 12:04:45;;;;;;;11.15;5.50;;;3.00;81.70;;;;;;9177374;19;19925;-65
2022/11/19 12:08:02;;;;;;;;;;;3.00;81.80;;;;;;9179766;19;20014;-66
2022/11/19 12:11:14;;;;;;;10.10;5.43;;;3.00;81.70;;;;;;9179539;19;19918;-64
2022/11/19 12:14:22;;;;;;;11.70;5.40;;;2.80;81.70;;;;;;9177344;19;20022;-69
2022/11/19 12:17:44;;;;;;;8.95;5.43;;;3.00;81.70;;;;;;9177908;19;20366;-66
2022/11/19 12:20:56;;;;;;;11.25;4.57;;;3.00;81.50;;;;;;9177736;19;20021;-67
2022/11/19 12:24:18;;;;;;;9.77;4.80;;;3.00;81.50;;;;;;9176712;19;20019;-65
2022/11/19 12:27:33;;;;;;;8.50;5.57;;;3.00;81.40;;;;;;9167703;19;20236;-66
2022/11/19 12:30:45;;;;;;;9.25;5.55;;;3.10;81.40;;;;;;9179348;19;20519;-69
2022/11/19 12:34:10;;;;;;;7.70;4.63;;;3.10;81.40;;;;;;9178745;19;20468;-65
2022/11/19 12:37:29;;;;;;;7.78;4.70;;;3.10;81.20;;;;;;9179370;19;20596;-66
2022/11/19 12:40:42;;;;;;;8.90;4.97;;;3.10;81.20;;;;;;9179208;19;20011;-65
2022/11/19 12:43:57;;;;;;;6.63;4.47;;;3.10;81.10;;;;;;9179044;19;20086;-64
2022/11/19 12:47:11;;;;;;;6.20;3.92;;;3.10;81.70;;;;;;9176037;19;20035;-65
2022/11/19 12:50:19;;;;;;;;;;;3.10;81.10;;;;;;9179631;19;20018;-65
2022/11/19 12:53:37;;;;;;;7.70;4.13;;;3.10;81.00;;;;;;9173643;19;19970;-67
2022/11/19 12:56:54;;;;;;;6.50;4.35;;;3.20;81.10;;;;;;9178480;19;20415;-66
2022/11/19 13:00:10;;;;;;;8.68;4.78;;;3.10;80.90;;;;;;9178065;19;20014;-66
2022/11/19 13:03:20;;;;;;;7.28;4.90;;;3.10;80.80;;;;;;9176346;19;20015;-66
2022/11/19 13:06:30;;;;;;;8.23;4.63;;;3.10;80.80;;;;;;9175897;19;20014;-67
2022/11/19 13:09:39;;;;;;;7.30;4.90;;;3.20;81.40;;;;;;9176990;19;20483;-66
2022/11/19 13:12:50;;;;;;;6.15;4.65;;;3.20;80.80;;;;;;9176841;19;20047;-67
2022/11/19 13:16:00;;;;;;;5.95;3.85;;;3.20;80.70;;;;;;9176838;19;20006;-66
2022/11/19 13:19:15;;;;;;;7.53;4.10;;;3.20;80.60;;;;;;9176196;19;20021;-65
2022/11/19 13:22:22;;;;;;;6.00;4.18;;;3.20;80.50;;;;;;9175953;19;20015;-67
2022/11/19 13:25:29;;;;;;;7.43;4.15;;;3.20;80.50;;;;;;9176569;19;20056;-68
2022/11/19 13:28:40;;;;;;;7.15;3.22;;;3.30;80.50;;;;;;9177606;19;20014;-64
2022/11/19 13:31:48;;;;;;;7.75;3.50;;;3.30;80.40;;;;;;9176800;19;20078;-65
2022/11/19 13:35:05;;;;;;;6.63;3.97;;;3.30;80.30;;;;;;9180566;19;20019;-67
2022/11/19 13:38:15;;;;;;;8.25;4.20;;;3.30;80.20;;;;;;9184917;19;20018;-66
2022/11/19 13:41:22;;;;;;;6.28;4.40;;;3.30;80.20;;;;;;9185017;19;20032;-67
2022/11/19 13:44:40;;;;;;;8.77;4.50;;;3.30;80.20;;;;;;9185226;19;20420;-66
2022/11/19 13:47:48;;;;;;;6.72;4.53;;;3.30;80.10;;;;;;9185794;19;20021;-65
2022/11/19 13:50:55;;;;;;;7.10;4.10;;;3.30;80.00;;;;;;9183674;19;20038;-65
2022/11/19 13:54:00;;;;;;;7.30;4.35;;;3.30;80.00;;;;;;9178505;19;20056;-66
2022/11/19 13:57:09;;;;;;;6.75;3.85;;;3.30;79.90;;;;;;9184900;19;20017;-65
2022/11/19 14:00:24;;;;;;;6.75;4.30;;;3.30;79.80;;;;;;9184707;19;20571;-65
2022/11/19 14:03:40;;;;;;;8.23;4.35;;;3.30;79.70;;;;;;9184619;19;20465;-67
2022/11/19 14:07:05;;;;;;;9.05;4.55;;;3.30;79.70;;;;;;9181306;19;20028;-66
2022/11/19 14:10:17;;;;;;;9.75;4.47;;;3.30;79.60;;;;;;9181862;19;20022;-65
2022/11/19 14:13:34;;;;;;;8.93;4.60;;;3.30;79.60;;;;;;9183989;19;20018;-65
2022/11/19 14:27:20;;;;;;;9.07;4.47;;;3.30;79.50;;;;;;9181494;19;20019;-66
2022/11/19 14:30:59;;;;;;;7.13;4.50;;;3.30;79.30;;;;;;9184175;19;20026;-66
2022/11/19 14:34:07;;;;;;;11.05;4.65;;;3.30;79.10;;;;;;9182464;19;20006;-65
2022/11/19 14:37:18;;;;;;;7.63;4.50;;;3.30;79.30;;;;;;9182850;19;20014;-67
2022/11/19 14:40:26;;;;;;;8.85;4.50;;;3.20;79.20;;;;;;9181429;19;20483;-65
2022/11/19 14:46:49;;;;;;;8.80;4.35;;;3.30;79.20;;;;;;9179102;19;20014;-65
2022/11/19 14:49:55;;;;;;;8.27;4.72;;;3.30;79.20;;;;;;9182916;19;20023;-66
2022/11/19 14:53:01;;;;;;;10.55;5.15;;;3.30;79.10;;;;;;9178352;19;20413;-65
2022/11/19 14:56:13;;;;;;;7.93;4.07;;;3.20;79.10;;;;;;9177205;19;20206;-65
2022/11/19 14:59:22;;;;;;;20.58;7.80;;;3.30;79.10;;;;;;9182626;19;20764;-64
2022/11/19 15:02:32;;;;;;;8.32;4.53;;;3.30;79.00;;;;;;9182169;19;20027;-65
2022/11/19 15:05:42;;;;;;;8.50;4.90;;;3.20;78.90;;;;;;9181426;19;20048;-65
2022/11/19 15:08:51;;;;;;;9.57;5.00;;;3.30;78.90;;;;;;9181955;19;20519;-65
2022/11/19 15:12:02;;;;;;;9.88;4.55;;;3.20;78.90;;;;;;9181678;19;20021;-66
2022/11/19 15:15:30;;;;;;;9.00;4.85;;;3.20;78.80;;;;;;9180744;19;20027;-67
2022/11/19 15:19:04;;;;;;;7.65;4.45;;;3.20;78.60;;;;;;9181107;19;20338;-67
2022/11/19 15:22:31;;;;;;;11.35;4.85;;;3.20;78.70;;;;;;9179922;19;20042;-65
2022/11/19 15:25:45;;;;;;;8.43;4.72;;;3.10;78.60;;;;;;9180977;19;20467;-65
2022/11/19 15:28:54;;;;;;;;;;;3.10;78.70;;;;;;9181988;19;20432;-63
2022/11/19 15:32:21;;;;;;;8.43;5.38;;;3.10;78.80;;;;;;9179689;19;20333;-64
2022/11/19 15:35:52;;;;;;;8.45;5.03;;;3.10;78.80;;;;;;9181549;19;20030;-67
2022/11/19 15:39:03;;;;;;;9.65;5.43;;;3.10;78.70;;;;;;9179302;19;20019;-65
2022/11/19 15:42:12;;;;;;;9.93;5.32;;;3.10;78.80;;;;;;9181016;19;20620;-65
2022/11/19 15:45:19;;;;;;;7.93;5.20;;;3.00;78.70;;;;;;9181053;19;20089;-65
2022/11/19 15:48:27;;;;;;;8.15;4.72;;;3.00;78.70;;;;;;9179086;19;20010;-65
2022/11/19 15:51:36;;;;;;;10.60;5.18;;;3.00;78.70;;;;;;9180231;19;20503;-64
2022/11/19 15:54:46;;;;;;;8.18;5.05;;;3.00;78.70;;;;;;9173309;19;20438;-66
2022/11/19 15:57:50;;;;;;;7.65;5.07;;;2.90;78.70;;;;;;9178155;19;20019;-65
2022/11/19 16:00:59;;;;;;;10.13;5.28;;;2.90;78.70;;;;;;9179769;19;20018;-63
2022/11/19 16:04:08;;;;;;;11.20;5.13;;;2.90;78.70;;;;;;9180412;19;20014;-63
2022/11/19 16:07:12;;;;;;;10.93;5.80;;;2.90;78.80;;;;;;9176936;19;20010;-63
2022/11/19 16:10:20;;;;;;;;;;;2.90;78.80;;;;;;9180542;19;20077;-65
2022/11/19 16:20:04;;;;;;;19.40;10.13;;;2.80;78.90;;;;;;9177635;19;20011;-64
2022/11/19 16:23:11;;;;;;;18.92;9.10;;;2.70;78.90;;;;;;9180221;19;20910;-65
2022/11/19 16:26:16;;;;;;;13.40;7.05;;;2.70;78.90;;;;;;9177837;19;20014;-65
2022/11/19 16:29:22;;;;;;;12.05;6.60;;;2.70;79.00;;;;;;9180306;19;20036;-66
2022/11/19 16:32:28;;;;;;;12.38;6.78;;;2.70;79.00;;;;;;9179092;19;20006;-64
2022/11/19 16:35:33;;;;;;;12.90;6.47;;;2.60;79.00;;;;;;9177731;19;20078;-65
2022/11/19 16:38:39;;;;;;;9.98;6.32;;;2.50;78.30;;;;;;9178456;19;20352;-65
2022/11/19 16:45:09;;;;;;;13.05;6.57;;;2.50;78.80;;;;;;9179600;19;20006;-65
2022/11/19 16:48:54;;;;;;;11.05;6.43;;;2.50;78.80;;;;;;9178449;19;20011;-64
2022/11/19 16:51:59;;;;;;;13.43;7.40;;;2.40;78.70;;;;;;9176358;19;20014;-64
2022/11/19 16:55:03;;;;;;;11.20;6.85;;;2.40;78.80;;;;;;9170122;19;20030;-63
2022/11/19 16:58:17;;;;;;;17.55;8.15;;;2.40;78.80;;;;;;9178120;19;20030;-64
2022/11/19 17:01:20;;;;;;;37.67;14.70;;;2.30;78.70;;;;;;9178259;19;20010;-66
2022/11/19 17:04:33;;;;;;;49.28;18.65;;;2.30;78.80;;;;;;9176390;19;20011;-64
2022/11/19 17:07:37;;;;;;;59.10;23.40;;;2.30;78.80;;;;;;9173562;19;20018;-65